Skip Navigation LinksHome page > Weather > Current weather Skip Navigation Links

Current Weather

Ronald Reagan Washington National, Washington

For information only: do not use for flight planning or navigation.
Latest weather
Observation time Sunday, March 24, 2019 9:52 PM EDT
Local time Sunday, March 24, 2019 10:14 PM EDT
Flight conditions Visual Meteorological Conditions
Winds
Wind speed calm
Visibility 10 mi.
Sky condition
Ceiling 17,000 ft. broken clouds
Cloud layer broken clouds 17,000 ft.
Cloud layer overcast 25,000 ft.
Temperature 57°F
Dewpoint 32°F
Altimeter 30.09 in.Hg
Derived measurements
Relative humidity 39%
Density altitude -213 ft.
Sea-level pressure 30.09 in.Hg
Remarks
System requires maintenance.
Automated weather observing station with precipitation discriminator.
METAR KDCA 250152Z 00000KT 10SM BKN170 OVC250 14/00 A3009 RMK AO2 SLP189 T01390000 $

Settings

Location code

InnerDrive.Weather 4.0.6770.0 Release CLR 4.0.30319.42000
Copyright ©2018 Inner Drive Technology. All rights reserved. Portions Copyright ©1986-2018 David Braverman.

Find weather

Site navigation


Skip Navigation Links

Place info

Page info

PayPal - The safer, easier way to pay online!

Return home.

Copyright ©2019 Inner Drive Technology. Purveyors of fine, hand-crafted computer software. Page printed 2019-03-25T02:14:08 UTC.